Pratica Di Mare Airport LIRE

Flugplatz Daten

Name: Pratica Di Mare Airport

Ident: LIRE

Lat: 41,65449905

Long: 12,44519997

Platzhöhe: 41 ft

IataCode:

City: Pomezia

Metar

2021/08/05 12:55
LIRE 051255Z 27014KT 9999 SCT020 26/20 Q1011 RMK BKN SCT100 VIS MIN 9999 WIND THR13 29012KT WIND THR31 /////KT BLU

Taf

Gewünschte Webcam nicht vorhanden? Dann fügen Sie eine hinzu. Sie wird dann so schnell wie möglich freigeschaltet
Url: Title: